Time;durP1;ratioP1;P1;durP2;ratioP2;P2;SDS_P1;SDS_P2;PMS_P1;PMS_P2;Temp;Humidity;BMP_temperature;BMP_pressure;BME280_temperature;BME280_humidity;BME280_pressure;Samples;Min_cycle;Max_cycle;Signal;HPM_P1;HPM_P2
2022/12/18 00:00:46;;;;;;;0.83;0.83;;;-5.00;99.90;;;;;;5027002;28;20211;-80
2022/12/18 00:03:13;;;;;;;0.90;0.90;;;-5.00;99.90;;;;;;5010593;28;20532;-80
2022/12/18 00:05:49;;;;;;;0.80;0.80;;;-5.10;99.90;;;;;;5027299;28;20529;-80
2022/12/18 00:08:15;;;;;;;0.90;0.90;;;-5.00;99.90;;;;;;5012391;28;20496;-80
2022/12/18 00:10:41;;;;;;;0.90;0.90;;;-5.10;99.90;;;;;;5027169;28;21033;-81
2022/12/18 00:13:07;;;;;;;0.90;0.90;;;-5.00;99.90;;;;;;5027842;28;20446;-80
2022/12/18 00:15:36;;;;;;;0.87;0.87;;;-5.00;99.90;;;;;;5018737;28;20188;-81
2022/12/18 00:18:02;;;;;;;0.70;0.70;;;-5.00;99.90;;;;;;5028116;28;20183;-81
2022/12/18 00:20:27;;;;;;;0.70;0.70;;;-4.90;99.90;;;;;;5023562;28;20503;-81
2022/12/18 00:22:53;;;;;;;0.60;0.60;;;-5.00;99.90;;;;;;5021997;28;20223;-80
2022/12/18 00:25:19;;;;;;;0.70;0.70;;;-5.00;99.90;;;;;;5028472;28;20765;-80
2022/12/18 00:27:45;;;;;;;0.90;0.90;;;-5.00;99.90;;;;;;5026354;28;20447;-80
2022/12/18 00:30:11;;;;;;;0.80;0.80;;;-5.00;99.90;;;;;;5027328;28;20219;-80
2022/12/18 00:32:36;;;;;;;0.70;0.70;;;-4.90;99.90;;;;;;5025177;28;20195;-81
2022/12/18 00:35:03;;;;;;;0.80;0.80;;;-5.00;99.90;;;;;;5011230;28;20996;-80
2022/12/18 00:37:29;;;;;;;0.60;0.60;;;-5.00;99.90;;;;;;5027737;28;20270;-80
2022/12/18 00:39:54;;;;;;;0.90;0.90;;;-5.10;99.90;;;;;;5028156;28;20550;-80
2022/12/18 00:45:04;;;;;;;0.70;0.70;;;-5.10;99.90;;;;;;5026834;28;20230;-80
2022/12/18 00:47:29;;;;;;;0.90;0.90;;;-5.10;99.90;;;;;;5020091;28;21205;-80
2022/12/18 00:49:55;;;;;;;0.70;0.70;;;-5.10;99.90;;;;;;5006917;28;20437;-81
2022/12/18 00:52:20;;;;;;;1.00;1.00;;;-5.10;99.90;;;;;;5023366;28;20679;-80
2022/12/18 00:54:46;;;;;;;0.90;0.90;;;-5.10;99.90;;;;;;5027406;28;20275;-81
2022/12/18 00:57:11;;;;;;;0.87;0.87;;;-5.20;99.90;;;;;;5026988;28;20734;-80
2022/12/18 00:59:37;;;;;;;0.97;0.97;;;-5.10;99.90;;;;;;5012730;28;20188;-81
2022/12/18 01:02:02;;;;;;;0.80;0.80;;;-5.10;99.90;;;;;;5027901;28;20322;-81
2022/12/18 01:04:30;;;;;;;0.80;0.80;;;-5.10;99.90;;;;;;5028852;28;20218;-80
2022/12/18 01:06:56;;;;;;;0.70;0.70;;;-5.10;99.90;;;;;;5031201;28;20290;-80
2022/12/18 01:09:21;;;;;;;0.80;0.80;;;-5.10;99.90;;;;;;5028869;28;20529;-80
2022/12/18 01:11:47;;;;;;;0.70;0.70;;;-5.10;99.90;;;;;;5029739;28;20242;-80
2022/12/18 01:14:12;;;;;;;0.87;0.87;;;-5.00;99.90;;;;;;5027803;28;20202;-80
2022/12/18 01:16:38;;;;;;;0.80;0.80;;;-5.00;99.90;;;;;;5027549;28;20179;-80
2022/12/18 01:19:03;;;;;;;1.00;1.00;;;-5.10;99.90;;;;;;5030985;28;20297;-80
2022/12/18 01:21:29;;;;;;;0.90;0.90;;;-5.10;99.90;;;;;;5030835;28;20262;-80
2022/12/18 01:23:56;;;;;;;0.80;0.80;;;-5.10;99.90;;;;;;5031300;28;20214;-80
2022/12/18 01:26:22;;;;;;;0.80;0.80;;;-5.10;99.90;;;;;;5026435;28;20188;-80
2022/12/18 01:28:47;;;;;;;0.77;0.77;;;-5.20;99.90;;;;;;5010780;28;20907;-80
2022/12/18 01:31:20;;;;;;;0.87;0.87;;;-5.20;99.90;;;;;;5026837;28;20530;-80
2022/12/18 01:33:49;;;;;;;0.80;0.80;;;-5.30;99.90;;;;;;5030310;28;20187;-80
2022/12/18 01:36:18;;;;;;;0.67;0.67;;;-5.20;99.90;;;;;;5033373;28;20406;-80
2022/12/18 01:38:44;;;;;;;0.90;0.90;;;-5.20;99.90;;;;;;5030909;28;20981;-80
2022/12/18 01:41:10;;;;;;;0.60;0.60;;;-5.30;99.90;;;;;;5030999;28;20442;-80
2022/12/18 01:43:57;;;;;;;0.80;0.80;;;-5.20;99.90;;;;;;5028683;28;20453;-81
2022/12/18 01:46:26;;;;;;;0.83;0.83;;;-5.20;99.90;;;;;;5026968;28;20438;-81
2022/12/18 01:48:56;;;;;;;0.87;0.87;;;-5.20;99.90;;;;;;5028258;28;20446;-80
2022/12/18 01:51:22;;;;;;;0.93;0.93;;;-5.20;99.90;;;;;;5029768;28;20446;-80
2022/12/18 01:53:48;;;;;;;0.80;0.80;;;-5.20;99.90;;;;;;5029772;28;20446;-80
2022/12/18 01:56:17;;;;;;;0.80;0.80;;;-5.20;99.90;;;;;;5031003;28;20442;-80
2022/12/18 01:58:57;;;;;;;0.80;0.80;;;-5.20;99.90;;;;;;5029399;28;20438;-80
2022/12/18 02:01:24;;;;;;;0.80;0.80;;;-5.20;99.90;;;;;;5020700;28;20486;-80
2022/12/18 02:03:51;;;;;;;0.80;0.80;;;-5.10;99.90;;;;;;5028720;28;20480;-80
2022/12/18 02:06:20;;;;;;;0.80;0.80;;;-5.10;99.90;;;;;;5028419;28;20435;-80
2022/12/18 02:09:15;;;;;;;0.80;0.80;;;-5.10;99.90;;;;;;5030943;28;20453;-80
2022/12/18 02:12:06;;;;;;;0.97;0.97;;;-5.20;99.90;;;;;;5015777;28;20446;-80
2022/12/18 02:14:40;;;;;;;0.87;0.87;;;-5.30;99.90;;;;;;5030335;28;20458;-80
2022/12/18 02:17:16;;;;;;;0.67;0.67;;;-5.30;99.90;;;;;;5012728;28;20492;-80
2022/12/18 02:20:01;;;;;;;0.90;0.90;;;-5.20;99.90;;;;;;5028949;28;20441;-80
2022/12/18 02:22:48;;;;;;;0.90;0.90;;;-5.20;99.90;;;;;;5027580;28;20489;-80
2022/12/18 02:25:43;;;;;;;0.70;0.70;;;-5.20;99.90;;;;;;5016207;28;20955;-81
2022/12/18 02:28:12;;;;;;;0.70;0.70;;;-5.20;99.90;;;;;;5021078;28;20485;-80
2022/12/18 02:30:40;;;;;;;0.80;0.80;;;-5.20;99.90;;;;;;5027797;28;20537;-80
2022/12/18 02:33:08;;;;;;;1.00;1.00;;;-5.20;99.90;;;;;;5029035;28;20462;-80
2022/12/18 02:35:35;;;;;;;0.83;0.83;;;-5.20;99.90;;;;;;5009816;28;21019;-80
2022/12/18 02:38:03;;;;;;;0.80;0.80;;;-5.20;99.90;;;;;;5027239;28;20632;-80
2022/12/18 02:40:30;;;;;;;0.87;0.87;;;-5.10;99.90;;;;;;5030608;28;20437;-81
2022/12/18 02:43:01;;;;;;;0.90;0.90;;;-5.20;99.90;;;;;;5030190;28;20489;-80
2022/12/18 02:45:27;;;;;;;0.77;0.77;;;-5.10;99.90;;;;;;5027455;28;20808;-80
2022/12/18 02:47:53;;;;;;;0.80;0.80;;;-5.20;99.90;;;;;;5027957;28;20445;-79
2022/12/18 02:50:21;;;;;;;0.80;0.80;;;-5.20;99.90;;;;;;5012629;28;20309;-80
2022/12/18 02:53:10;;;;;;;1.03;1.03;;;-5.20;99.90;;;;;;5026853;28;20301;-80
2022/12/18 02:56:16;;;;;;;0.80;0.80;;;-5.20;99.90;;;;;;5028004;28;20481;-81
2022/12/18 02:59:02;;;;;;;0.93;0.93;;;-5.20;99.90;;;;;;5020599;28;20434;-80
2022/12/18 03:01:47;;;;;;;0.87;0.87;;;-5.20;99.90;;;;;;5027139;28;20488;-81
2022/12/18 03:04:24;;;;;;;1.00;1.00;;;-5.20;99.90;;;;;;5009035;28;20924;-81
2022/12/18 03:06:55;;;;;;;0.90;0.90;;;-5.20;99.90;;;;;;5031022;28;20422;-80
2022/12/18 03:09:35;;;;;;;0.90;0.90;;;-5.20;99.90;;;;;;5025054;28;20438;-81
2022/12/18 03:12:49;;;;;;;0.80;0.80;;;-5.20;99.90;;;;;;5024760;28;20449;-80
2022/12/18 03:15:23;;;;;;;1.00;1.00;;;-5.20;99.90;;;;;;4990209;28;20444;-80
2022/12/18 03:17:57;;;;;;;0.90;0.90;;;-5.20;99.90;;;;;;5022441;28;20458;-80
2022/12/18 03:20:24;;;;;;;0.90;0.90;;;-5.20;99.90;;;;;;5029085;28;20444;-80
2022/12/18 03:22:55;;;;;;;0.80;0.80;;;-5.30;99.90;;;;;;5027871;28;20998;-80
2022/12/18 03:25:22;;;;;;;0.83;0.83;;;-5.30;99.90;;;;;;5009091;28;20476;-80
2022/12/18 03:27:53;;;;;;;0.93;0.93;;;-5.30;99.90;;;;;;5009559;28;20576;-80
2022/12/18 03:30:19;;;;;;;0.80;0.80;;;-5.30;99.90;;;;;;5027031;28;20504;-80
2022/12/18 03:32:56;;;;;;;0.90;0.90;;;-5.40;99.90;;;;;;5021929;28;20431;-80
2022/12/18 03:35:28;;;;;;;0.90;0.90;;;-5.30;99.90;;;;;;5026138;28;20223;-80
2022/12/18 03:37:53;;;;;;;0.80;0.80;;;-5.40;99.90;;;;;;5024286;28;20651;-80
2022/12/18 03:40:23;;;;;;;0.77;0.77;;;-5.40;99.90;;;;;;5029876;28;20953;-80
2022/12/18 03:43:03;;;;;;;1.00;1.00;;;-5.40;99.90;;;;;;5009361;28;20251;-80
2022/12/18 03:45:39;;;;;;;0.87;0.87;;;-5.40;99.90;;;;;;5024669;28;20463;-81
2022/12/18 03:48:31;;;;;;;0.70;0.70;;;-5.40;99.90;;;;;;5026133;28;20488;-80
2022/12/18 03:51:09;;;;;;;1.00;1.00;;;-5.40;99.90;;;;;;5024900;28;20541;-80
2022/12/18 03:53:57;;;;;;;0.80;0.80;;;-5.40;99.90;;;;;;5027441;28;20438;-81
2022/12/18 03:56:29;;;;;;;1.00;1.00;;;-5.40;99.90;;;;;;5027806;28;20450;-80
2022/12/18 03:58:56;;;;;;;0.90;0.90;;;-5.50;99.90;;;;;;5011866;28;20968;-80
2022/12/18 04:01:28;;;;;;;0.90;0.90;;;-5.50;99.90;;;;;;5024001;28;20478;-80
2022/12/18 04:03:55;;;;;;;0.70;0.70;;;-5.40;99.90;;;;;;5009738;28;20499;-81
2022/12/18 04:06:22;;;;;;;0.80;0.80;;;-5.40;99.90;;;;;;5027570;28;20585;-80
2022/12/18 04:08:48;;;;;;;0.80;0.80;;;-5.40;99.90;;;;;;5027345;28;21008;-80
2022/12/18 04:11:13;;;;;;;1.00;1.00;;;-5.50;99.90;;;;;;5023793;28;20442;-80
2022/12/18 04:13:39;;;;;;;1.00;1.00;;;-5.50;99.90;;;;;;5028423;28;20946;-80
2022/12/18 04:16:05;;;;;;;0.80;0.80;;;-5.50;99.90;;;;;;5002595;28;20200;-80
2022/12/18 04:18:30;;;;;;;1.03;1.03;;;-5.50;99.90;;;;;;5003484;28;20191;-80
2022/12/18 04:20:56;;;;;;;0.70;0.70;;;-5.50;99.90;;;;;;5026653;28;20231;-80
2022/12/18 04:23:21;;;;;;;0.83;0.83;;;-5.50;99.90;;;;;;5029178;28;20698;-80
2022/12/18 04:25:47;;;;;;;0.90;0.90;;;-5.50;99.90;;;;;;5009063;28;20874;-80
2022/12/18 04:28:13;;;;;;;0.80;0.80;;;-5.50;99.90;;;;;;5022015;28;20274;-80
2022/12/18 04:30:38;;;;;;;0.67;0.67;;;-5.50;99.90;;;;;;5007124;28;20726;-80
2022/12/18 04:33:07;;;;;;;1.13;1.13;;;-5.50;99.90;;;;;;5025073;28;20192;-80
2022/12/18 04:35:33;;;;;;;0.80;0.80;;;-5.50;99.90;;;;;;5031061;28;20187;-80
2022/12/18 04:37:58;;;;;;;1.00;1.00;;;-5.40;99.90;;;;;;5014388;28;20875;-80
2022/12/18 04:40:24;;;;;;;0.97;0.97;;;-5.50;99.90;;;;;;5031635;28;20195;-80
2022/12/18 04:42:49;;;;;;;1.00;1.00;;;-5.50;99.90;;;;;;5027399;28;20253;-80
2022/12/18 04:45:15;;;;;;;0.90;0.90;;;-5.40;99.90;;;;;;5030563;28;20194;-80
2022/12/18 04:47:40;;;;;;;0.83;0.83;;;-5.50;99.90;;;;;;5028711;28;20195;-80
2022/12/18 04:50:06;;;;;;;0.80;0.80;;;-5.50;99.90;;;;;;5028652;28;20199;-80
2022/12/18 04:52:31;;;;;;;0.83;0.83;;;-5.50;99.90;;;;;;5031517;28;20288;-80
2022/12/18 04:54:57;;;;;;;0.60;0.60;;;-5.50;99.90;;;;;;5033745;28;20560;-80
2022/12/18 04:57:22;;;;;;;0.80;0.80;;;-5.50;99.90;;;;;;5012647;28;20191;-80
2022/12/18 04:59:48;;;;;;;1.00;1.00;;;-5.50;99.90;;;;;;5031342;28;20320;-80
2022/12/18 05:02:14;;;;;;;0.80;0.80;;;-5.50;99.90;;;;;;5029981;28;20247;-80
2022/12/18 05:04:40;;;;;;;0.80;0.80;;;-5.50;99.90;;;;;;5013984;28;20438;-80
2022/12/18 05:07:05;;;;;;;0.90;0.90;;;-5.50;99.90;;;;;;5026847;28;20200;-80
2022/12/18 05:09:31;;;;;;;0.80;0.80;;;-5.60;99.90;;;;;;5030009;28;20196;-79
2022/12/18 05:11:56;;;;;;;0.60;0.60;;;-5.50;99.90;;;;;;5027932;28;20717;-80
2022/12/18 05:14:22;;;;;;;0.80;0.80;;;-5.50;99.90;;;;;;5032177;28;20199;-80
2022/12/18 05:16:48;;;;;;;0.90;0.90;;;-5.60;99.90;;;;;;5031086;28;20213;-80
2022/12/18 05:19:13;;;;;;;0.70;0.70;;;-5.60;99.90;;;;;;5030258;28;20935;-80
2022/12/18 05:21:39;;;;;;;0.80;0.80;;;-5.60;99.90;;;;;;5014942;28;20269;-80
2022/12/18 05:24:05;;;;;;;0.80;0.80;;;-5.60;99.90;;;;;;5014523;28;20188;-80
2022/12/18 05:26:30;;;;;;;0.97;0.97;;;-5.60;99.90;;;;;;5030628;28;20254;-80
2022/12/18 05:28:56;;;;;;;1.00;1.00;;;-5.60;99.90;;;;;;5031619;28;20545;-80
2022/12/18 05:31:21;;;;;;;0.90;0.90;;;-5.60;99.90;;;;;;5028343;28;20191;-80
2022/12/18 05:33:50;;;;;;;0.80;0.80;;;-5.70;99.90;;;;;;5030235;28;20274;-80
2022/12/18 05:36:16;;;;;;;0.80;0.80;;;-5.70;99.90;;;;;;5030705;28;20226;-80
2022/12/18 05:38:41;;;;;;;1.10;1.10;;;-5.70;99.90;;;;;;5002033;28;20471;-80
2022/12/18 05:41:08;;;;;;;0.93;0.93;;;-5.70;99.90;;;;;;5025806;28;20526;-80
2022/12/18 05:43:35;;;;;;;0.80;0.80;;;-5.80;99.90;;;;;;5024582;28;20220;-79
2022/12/18 05:46:10;;;;;;;0.97;0.97;;;-5.80;99.90;;;;;;5010596;28;20847;-80
2022/12/18 05:48:36;;;;;;;0.80;0.80;;;-5.80;99.90;;;;;;5033260;28;20422;-81
2022/12/18 05:51:07;;;;;;;0.90;0.90;;;-5.80;99.90;;;;;;5029762;28;20511;-80
2022/12/18 05:53:33;;;;;;;1.00;1.00;;;-5.80;99.90;;;;;;5031739;28;20188;-80
2022/12/18 05:56:01;;;;;;;1.10;1.10;;;-5.80;99.90;;;;;;5044685;28;20496;-81
2022/12/18 05:58:27;;;;;;;0.80;0.80;;;-5.80;99.90;;;;;;5031250;28;20450;-80
2022/12/18 06:00:52;;;;;;;0.80;0.80;;;-5.90;99.90;;;;;;5023194;28;20981;-80
2022/12/18 06:03:18;;;;;;;0.80;0.80;;;-5.90;99.90;;;;;;5025553;28;20274;-80
2022/12/18 06:05:44;;;;;;;1.10;1.10;;;-5.90;99.90;;;;;;5028008;28;20284;-80
2022/12/18 06:08:11;;;;;;;1.00;1.00;;;-5.90;99.90;;;;;;5027546;28;20604;-80
2022/12/18 06:10:37;;;;;;;0.83;0.83;;;-5.90;99.90;;;;;;5026056;28;20448;-80
2022/12/18 06:13:04;;;;;;;1.17;1.17;;;-5.90;99.90;;;;;;5031448;28;20450;-80
2022/12/18 06:15:29;;;;;;;0.90;0.90;;;-5.90;99.90;;;;;;5010378;28;20450;-80
2022/12/18 06:17:55;;;;;;;1.00;1.00;;;-6.00;99.90;;;;;;5031001;28;20454;-80
2022/12/18 06:20:21;;;;;;;0.70;0.70;;;-6.00;99.90;;;;;;5025173;28;20230;-80
2022/12/18 06:22:46;;;;;;;0.80;0.80;;;-6.00;99.90;;;;;;5029285;28;20270;-80
2022/12/18 06:25:12;;;;;;;1.03;1.03;;;-6.00;99.90;;;;;;5028881;28;20563;-80
2022/12/18 06:27:37;;;;;;;0.90;0.90;;;-6.00;99.90;;;;;;5023052;28;20206;-80
2022/12/18 06:30:04;;;;;;;1.00;1.00;;;-6.00;99.90;;;;;;5007483;28;20258;-80
2022/12/18 06:32:29;;;;;;;1.27;1.27;;;-6.10;99.90;;;;;;5024692;28;20205;-80
2022/12/18 06:34:55;;;;;;;1.10;1.10;;;-6.10;99.90;;;;;;5027006;28;20431;-80
2022/12/18 06:37:21;;;;;;;1.30;1.30;;;-6.20;99.90;;;;;;5026556;28;20607;-80
2022/12/18 06:39:46;;;;;;;0.90;0.90;;;-6.20;99.90;;;;;;5019581;28;20301;-79
2022/12/18 06:42:12;;;;;;;0.73;0.73;;;-6.20;99.90;;;;;;5009407;28;20290;-80
2022/12/18 06:44:37;;;;;;;0.73;0.73;;;-6.20;99.90;;;;;;5010908;28;20176;-80
2022/12/18 06:47:03;;;;;;;0.90;0.90;;;-6.30;99.90;;;;;;5009563;28;20199;-80
2022/12/18 06:49:28;;;;;;;0.93;0.93;;;-6.20;99.90;;;;;;5007183;28;20295;-80
2022/12/18 06:51:54;;;;;;;0.83;0.83;;;-6.30;99.90;;;;;;5026585;28;20545;-79
2022/12/18 06:54:19;;;;;;;0.80;0.80;;;-6.30;99.90;;;;;;5024837;28;20198;-81
2022/12/18 06:56:46;;;;;;;1.00;1.00;;;-6.30;99.90;;;;;;5024142;28;20199;-80
2022/12/18 06:59:13;;;;;;;0.80;0.80;;;-6.30;99.90;;;;;;5009025;28;20269;-80
2022/12/18 07:01:38;;;;;;;1.10;1.10;;;-6.30;99.90;;;;;;5026139;28;20577;-80
2022/12/18 07:04:04;;;;;;;1.00;1.00;;;-6.30;99.90;;;;;;5019636;28;20458;-80
2022/12/18 07:06:29;;;;;;;1.00;1.00;;;-6.30;99.90;;;;;;5024309;28;20184;-80
2022/12/18 07:08:55;;;;;;;0.80;0.80;;;-6.30;99.90;;;;;;5022264;28;20718;-79
2022/12/18 07:11:21;;;;;;;0.90;0.90;;;-6.30;99.90;;;;;;5005768;28;20210;-80
2022/12/18 07:13:47;;;;;;;1.00;1.00;;;-6.40;99.90;;;;;;5025519;28;20299;-80
2022/12/18 07:16:18;;;;;;;0.90;0.90;;;-6.40;99.90;;;;;;5028007;28;20499;-80
2022/12/18 07:18:44;;;;;;;0.70;0.70;;;-6.40;99.90;;;;;;5030489;28;20214;-81
2022/12/18 07:21:12;;;;;;;0.80;0.80;;;-6.40;99.90;;;;;;5012892;28;20508;-80
2022/12/18 07:23:39;;;;;;;0.93;0.93;;;-6.40;99.90;;;;;;5026522;28;21047;-81
2022/12/18 07:26:07;;;;;;;0.90;0.90;;;-6.40;99.90;;;;;;5021406;28;20446;-80
2022/12/18 07:28:33;;;;;;;0.90;0.90;;;-6.40;99.90;;;;;;5027312;28;20445;-80
2022/12/18 07:31:03;;;;;;;1.10;1.10;;;-6.40;99.90;;;;;;5023735;28;20459;-81
2022/12/18 07:33:29;;;;;;;0.87;0.87;;;-6.30;99.90;;;;;;5006522;28;20446;-82
2022/12/18 07:35:54;;;;;;;1.00;1.00;;;-6.30;99.90;;;;;;5026975;28;20454;-79
2022/12/18 07:38:20;;;;;;;0.80;0.80;;;-6.20;99.90;;;;;;5027623;28;20274;-80
2022/12/18 07:40:46;;;;;;;0.80;0.80;;;-6.30;99.90;;;;;;5027855;28;20743;-80
2022/12/18 07:43:11;;;;;;;1.00;1.00;;;-6.40;99.90;;;;;;5021471;28;20678;-79
2022/12/18 07:45:37;;;;;;;0.90;0.90;;;-6.40;99.90;;;;;;5009407;28;20294;-80
2022/12/18 07:48:03;;;;;;;0.90;0.90;;;-6.50;99.90;;;;;;5022321;28;20195;-81
2022/12/18 07:50:28;;;;;;;1.10;1.10;;;-6.50;99.90;;;;;;5014207;28;20278;-81
2022/12/18 07:52:54;;;;;;;0.83;0.83;;;-6.50;99.90;;;;;;5022843;28;20458;-81
2022/12/18 07:55:19;;;;;;;1.00;1.00;;;-6.50;99.90;;;;;;5007632;28;20609;-80
2022/12/18 07:57:45;;;;;;;1.00;1.00;;;-6.50;99.90;;;;;;5028706;28;20203;-80
2022/12/18 08:00:12;;;;;;;0.90;0.90;;;-6.50;99.90;;;;;;5025675;28;20688;-81
2022/12/18 08:02:38;;;;;;;1.20;1.20;;;-6.50;99.90;;;;;;5010284;28;20713;-80
2022/12/18 08:05:04;;;;;;;1.00;1.00;;;-6.50;99.90;;;;;;5028825;28;20450;-80
2022/12/18 08:07:29;;;;;;;1.00;1.00;;;-6.60;99.90;;;;;;5026397;28;20615;-80
2022/12/18 08:09:55;;;;;;;0.90;0.90;;;-6.50;99.90;;;;;;5029362;28;20449;-80
2022/12/18 08:12:20;;;;;;;0.90;0.90;;;-6.50;99.90;;;;;;5027935;28;20278;-81
2022/12/18 08:14:46;;;;;;;1.10;1.10;;;-6.60;99.90;;;;;;5010702;28;20730;-81
2022/12/18 08:17:11;;;;;;;0.90;0.90;;;-6.60;99.90;;;;;;5008065;28;20283;-81
2022/12/18 08:19:37;;;;;;;0.83;0.83;;;-6.60;99.90;;;;;;5036705;28;20244;-80
2022/12/18 08:22:02;;;;;;;1.10;1.10;;;-6.50;99.90;;;;;;5016165;28;20581;-81
2022/12/18 08:24:28;;;;;;;1.20;1.20;;;-6.50;99.90;;;;;;5033923;28;20182;-80
2022/12/18 08:26:53;;;;;;;0.90;0.90;;;-6.50;99.90;;;;;;5026205;28;20187;-80
2022/12/18 08:29:19;;;;;;;1.00;1.00;;;-6.50;99.90;;;;;;5025756;28;20180;-80
2022/12/18 08:31:45;;;;;;;0.77;0.77;;;-6.40;99.90;;;;;;5021118;28;20723;-80
2022/12/18 08:34:10;;;;;;;0.90;0.90;;;-6.40;99.90;;;;;;5001222;28;20477;-79
2022/12/18 08:36:36;;;;;;;0.70;0.70;;;-6.30;99.90;;;;;;5005273;28;20230;-80
2022/12/18 08:39:01;;;;;;;0.70;0.70;;;-6.20;99.90;;;;;;5001760;28;20188;-79
2022/12/18 08:41:27;;;;;;;1.10;1.10;;;-6.20;99.90;;;;;;5016868;28;20217;-80
2022/12/18 08:46:39;;;;;;;0.90;0.90;;;-5.90;99.90;;;;;;5015268;28;20207;-80
2022/12/18 08:49:06;;;;;;;1.10;1.10;;;-5.90;99.90;;;;;;5022056;28;20462;-80
2022/12/18 08:51:32;;;;;;;1.10;1.10;;;-5.80;99.90;;;;;;5023598;28;20545;-80
2022/12/18 08:53:58;;;;;;;1.00;1.00;;;-5.80;99.90;;;;;;5009344;28;20525;-79
2022/12/18 08:56:24;;;;;;;0.80;0.80;;;-5.70;99.90;;;;;;5021085;28;20628;-79
2022/12/18 08:58:53;;;;;;;0.70;0.70;;;-5.70;99.90;;;;;;5019493;28;20278;-79
2022/12/18 09:01:18;;;;;;;0.73;0.73;;;-5.60;99.90;;;;;;5000484;28;20223;-79
2022/12/18 09:03:48;;;;;;;0.87;0.87;;;-5.60;99.90;;;;;;5019953;28;20457;-79
2022/12/18 09:06:15;;;;;;;0.90;0.90;;;-5.60;99.90;;;;;;5014980;28;20191;-79
2022/12/18 09:08:41;;;;;;;0.60;0.60;;;-5.50;99.90;;;;;;5026411;28;20989;-79
2022/12/18 09:11:14;;;;;;;1.00;1.00;;;-5.50;99.90;;;;;;5006881;28;20584;-79
2022/12/18 09:13:40;;;;;;;0.90;0.90;;;-5.50;99.90;;;;;;5025925;28;20523;-78
2022/12/18 09:16:05;;;;;;;0.87;0.87;;;-5.40;99.90;;;;;;5020921;28;20530;-79
2022/12/18 09:18:31;;;;;;;0.80;0.80;;;-5.30;99.90;;;;;;5023311;28;20260;-79
2022/12/18 09:20:56;;;;;;;0.67;0.67;;;-5.30;99.90;;;;;;5032224;28;20678;-79
2022/12/18 09:23:22;;;;;;;0.67;0.67;;;-5.20;99.90;;;;;;5030919;28;20226;-78
2022/12/18 09:25:48;;;;;;;0.60;0.60;;;-5.20;99.90;;;;;;5025373;28;20192;-79
2022/12/18 09:28:18;;;;;;;0.60;0.60;;;-5.00;99.90;;;;;;5027074;28;20195;-78
2022/12/18 09:30:46;;;;;;;0.90;0.90;;;-4.70;99.90;;;;;;5023869;28;20187;-78
2022/12/18 09:33:12;;;;;;;0.63;0.63;;;-4.60;99.90;;;;;;5031907;28;20525;-78
2022/12/18 09:35:42;;;;;;;0.70;0.70;;;-4.40;99.90;;;;;;5030857;28;20595;-78
2022/12/18 09:38:12;;;;;;;0.80;0.80;;;-4.30;99.90;;;;;;5031336;28;20531;-78
2022/12/18 09:40:50;;;;;;;0.60;0.60;;;-4.20;99.90;;;;;;5021139;28;20445;-78
2022/12/18 09:43:20;;;;;;;0.80;0.80;;;-4.20;99.90;;;;;;5027986;28;20605;-78
2022/12/18 09:45:51;;;;;;;0.97;0.97;;;-3.80;99.90;;;;;;5029280;28;21084;-79
2022/12/18 09:48:27;;;;;;;0.90;0.90;;;-3.40;99.90;;;;;;5024441;28;20458;-79
2022/12/18 09:50:57;;;;;;;0.83;0.83;;;-3.40;99.90;;;;;;5031591;28;20578;-78
2022/12/18 09:53:28;;;;;;;0.70;0.70;;;-3.60;99.90;;;;;;5026468;28;20461;-79
2022/12/18 09:55:55;;;;;;;0.63;0.63;;;-2.80;99.90;;;;;;5031483;28;20441;-78
2022/12/18 09:58:41;;;;;;;0.77;0.77;;;-2.30;99.90;;;;;;5011807;28;20500;-79
2022/12/18 10:01:20;;;;;;;0.60;0.60;;;-2.70;99.90;;;;;;5027077;28;20547;-79
2022/12/18 10:03:47;;;;;;;0.60;0.60;;;-3.50;99.90;;;;;;5022651;28;21264;-79
2022/12/18 10:06:20;;;;;;;0.70;0.70;;;-3.70;99.90;;;;;;5031744;28;20492;-79
2022/12/18 10:08:53;;;;;;;0.60;0.60;;;-3.90;99.90;;;;;;5022359;28;21311;-79
2022/12/18 10:11:32;;;;;;;0.70;0.70;;;-4.00;99.90;;;;;;5019890;28;20450;-79
2022/12/18 10:14:23;;;;;;;0.70;0.70;;;-3.90;99.90;;;;;;5030773;28;21264;-79
2022/12/18 10:17:00;;;;;;;0.77;0.77;;;-4.00;99.90;;;;;;5023030;28;20465;-79
2022/12/18 10:19:38;;;;;;;0.70;0.70;;;-3.80;99.90;;;;;;5030646;28;20438;-79
2022/12/18 10:22:10;;;;;;;0.90;0.90;;;-3.80;99.90;;;;;;5029881;28;20570;-78
2022/12/18 10:25:01;;;;;;;0.70;0.70;;;-3.40;99.90;;;;;;5028233;28;20453;-78
2022/12/18 10:27:27;;;;;;;0.90;0.90;;;-3.20;99.90;;;;;;5031764;28;20984;-79
2022/12/18 10:29:53;;;;;;;0.60;0.60;;;-3.10;99.90;;;;;;5013076;28;20560;-79
2022/12/18 10:32:23;;;;;;;0.87;0.87;;;-1.80;99.90;;;;;;5027882;28;20191;-79
2022/12/18 10:34:50;;;;;;;0.70;0.70;;;-1.20;99.90;;;;;;5027396;28;20616;-79
2022/12/18 10:37:18;;;;;;;0.90;0.90;;;-1.10;99.90;;;;;;5027086;28;20504;-79
2022/12/18 10:39:44;;;;;;;0.70;0.70;;;-1.20;99.90;;;;;;5029143;28;20450;-79
2022/12/18 10:42:17;;;;;;;0.60;0.60;;;-1.50;99.90;;;;;;5013208;28;21091;-79
2022/12/18 10:44:44;;;;;;;0.70;0.70;;;-1.90;99.90;;;;;;5008455;28;20454;-79
2022/12/18 10:47:14;;;;;;;0.67;0.67;;;-2.10;99.90;;;;;;5013580;28;20438;-79
2022/12/18 10:49:49;;;;;;;0.77;0.77;;;-2.10;99.90;;;;;;5008227;28;20946;-79
2022/12/18 10:52:18;;;;;;;0.57;0.57;;;-2.00;99.90;;;;;;5014206;28;20484;-79
2022/12/18 10:54:50;;;;;;;0.80;0.80;;;-2.20;99.90;;;;;;5026635;28;20438;-79
2022/12/18 10:57:28;;;;;;;0.70;0.70;;;-2.40;99.90;;;;;;5021522;28;20442;-79
2022/12/18 10:59:56;;;;;;;0.70;0.70;;;-2.60;99.90;;;;;;5006675;28;20469;-78
2022/12/18 11:02:39;;;;;;;0.70;0.70;;;-2.60;99.90;;;;;;5009709;28;20501;-78
2022/12/18 11:05:28;;;;;;;0.60;0.60;;;-2.60;99.90;;;;;;5037161;28;20429;-78
2022/12/18 11:07:54;;;;;;;0.53;0.53;;;-2.60;99.90;;;;;;5019810;28;20487;-77
2022/12/18 11:10:25;;;;;;;0.80;0.80;;;-2.70;99.90;;;;;;5029482;28;20442;-78
2022/12/18 11:12:51;;;;;;;0.80;0.80;;;-2.70;99.90;;;;;;5011557;28;20453;-78
2022/12/18 11:15:29;;;;;;;0.77;0.77;;;-2.70;99.90;;;;;;5024958;28;20445;-78
2022/12/18 11:17:55;;;;;;;0.70;0.70;;;-2.50;99.90;;;;;;5018226;28;20442;-78
2022/12/18 11:20:31;;;;;;;0.70;0.70;;;-2.20;99.90;;;;;;5025035;28;21331;-78
2022/12/18 11:23:00;;;;;;;0.70;0.70;;;-2.10;99.90;;;;;;5010410;28;20583;-78
2022/12/18 11:25:30;;;;;;;0.70;0.70;;;-2.10;99.90;;;;;;5026102;28;20422;-78
2022/12/18 11:28:05;;;;;;;0.67;0.67;;;-2.30;99.90;;;;;;5005283;28;20545;-79
2022/12/18 11:30:35;;;;;;;0.70;0.70;;;-2.40;99.90;;;;;;5021278;28;20442;-79
2022/12/18 11:33:10;;;;;;;0.60;0.60;;;-2.60;99.90;;;;;;5023176;28;20431;-79
2022/12/18 11:35:44;;;;;;;0.70;0.70;;;-2.70;99.90;;;;;;5025533;28;20479;-79
2022/12/18 11:38:19;;;;;;;0.80;0.80;;;-2.80;99.90;;;;;;5004176;28;20496;-79
2022/12/18 11:40:50;;;;;;;0.60;0.60;;;-3.00;99.90;;;;;;5027137;28;20495;-79
2022/12/18 11:43:28;;;;;;;0.57;0.57;;;-3.00;99.90;;;;;;5022257;28;20486;-79
2022/12/18 11:46:00;;;;;;;0.60;0.60;;;-3.00;99.90;;;;;;5024236;28;20442;-77
2022/12/18 11:48:32;;;;;;;0.60;0.60;;;-3.00;99.90;;;;;;5002983;28;20529;-78
2022/12/18 11:51:01;;;;;;;0.60;0.60;;;-2.90;99.90;;;;;;5016493;28;20807;-79
2022/12/18 11:53:27;;;;;;;0.70;0.70;;;-2.90;99.90;;;;;;5023540;28;20447;-81
2022/12/18 11:56:21;;;;;;;0.70;0.70;;;-2.60;99.90;;;;;;5023005;28;20450;-80
2022/12/18 11:58:50;;;;;;;0.70;0.70;;;-2.40;99.90;;;;;;5022558;28;23023;-80
2022/12/18 12:01:40;;;;;;;0.70;0.70;;;-2.40;99.90;;;;;;5003290;28;20497;-79
2022/12/18 12:04:31;;;;;;;0.50;0.50;;;-2.40;99.90;;;;;;4996793;28;20992;-79
2022/12/18 12:07:02;;;;;;;0.60;0.60;;;-2.40;99.90;;;;;;5003753;28;20444;-78
2022/12/18 12:09:53;;;;;;;0.60;0.60;;;-2.50;99.90;;;;;;5006315;28;20933;-79
2022/12/18 12:12:45;;;;;;;0.60;0.60;;;-2.50;99.90;;;;;;4996752;28;20446;-79
2022/12/18 12:15:19;;;;;;;0.70;0.70;;;-2.50;99.90;;;;;;4997258;28;20447;-81
2022/12/18 12:18:00;;;;;;;0.70;0.70;;;-2.70;99.90;;;;;;5003450;28;20938;-80
2022/12/18 12:20:55;;;;;;;0.90;0.90;;;-2.70;99.90;;;;;;4994230;28;20454;-80
2022/12/18 12:23:35;;;;;;;0.70;0.70;;;-2.80;99.90;;;;;;5007802;28;20490;-78
2022/12/18 12:26:23;;;;;;;0.60;0.60;;;-2.80;99.90;;;;;;5007937;28;20431;-79
2022/12/18 12:29:10;;;;;;;0.70;0.70;;;-2.70;99.90;;;;;;4992371;28;20475;-80
2022/12/18 12:31:48;;;;;;;0.60;0.60;;;-2.80;99.90;;;;;;5001630;28;21052;-79
2022/12/18 12:34:26;;;;;;;0.60;0.60;;;-2.80;99.90;;;;;;5007646;28;20447;-80
2022/12/18 12:37:30;;;;;;;0.60;0.60;;;-2.80;99.90;;;;;;5002827;28;20461;-79
2022/12/18 12:39:56;;;;;;;0.60;0.60;;;-2.50;99.90;;;;;;5001491;28;20443;-79
2022/12/18 12:45:41;;;;;;;0.63;0.63;;;-2.70;99.90;;;;;;4993854;28;20886;-80
2022/12/18 12:48:17;;;;;;;0.80;0.80;;;-2.80;99.90;;;;;;4992952;28;20447;-78
2022/12/18 12:50:44;;;;;;;0.70;0.70;;;-2.80;99.90;;;;;;5004278;28;20487;-80
2022/12/18 12:53:24;;;;;;;0.70;0.70;;;-3.00;99.90;;;;;;4996255;28;20458;-80
2022/12/18 12:55:50;;;;;;;0.77;0.77;;;-2.90;99.90;;;;;;5008206;28;20474;-81
2022/12/18 12:58:44;;;;;;;0.60;0.60;;;-3.00;99.90;;;;;;5004222;28;20954;-79
2022/12/18 13:01:19;;;;;;;0.70;0.70;;;-2.90;99.90;;;;;;5009380;28;20474;-79
2022/12/18 13:04:15;;;;;;;0.80;0.80;;;-2.90;99.90;;;;;;5009213;28;20477;-79
2022/12/18 13:07:02;;;;;;;0.50;0.50;;;-2.90;99.90;;;;;;5024375;28;20436;-80
2022/12/18 13:10:13;;;;;;;0.83;0.83;;;-3.00;99.90;;;;;;5010355;28;20523;-78
2022/12/18 13:13:15;;;;;;;0.90;0.90;;;-3.00;99.90;;;;;;5007088;28;20520;-79